Tiempo atmosférico en la estación meteorológica de Frontera, Sabinosa, Santa Cruz de Tenerife (20 m.)



Fecha
DESCASC
Temp. máxima en grados centígrados (hora)
DESCASC
Temp. mínima en grados centígrados (hora)
DESCASC
Temp. media en grados centígrados
DESCASC
Racha de viento máxima en m/sg (hora)
DESCASC
Velocidad máxima media en intervalos de 10 minutos(hora)
DESCASC
Precipitaciones diarias en mm
DESCASC
Precipitaciones de 00:00 a 06:00 en mm
DESCASC
Precipitaciones de 06:00 a 12:00 en mm
DESCASC
Precipitaciones de 12:00 a 18:00 en mm
DESCASC
Precipitaciones de 18:00 a 24:00 en mm
DESCASC
29-03-2020 22.8 (12:30) 14.9 (08:30) 18.8 8.61 (17:40) 4.72 (17:30) 0 0 0 0 0
28-03-2020 21.4 (11:40) 16.9 (23:50) 19.1 6.39 (04:20) 4.44 (01:40) 0 0 0 0 0
27-03-2020 22.4 (12:10) 16.3 (06:10) 19.3 7.78 (18:20) 5.56 (18:20) 0 0 0 0 0
26-03-2020 21.7 (13:40) 17.2 (00:00) 19.5 5 (10:30) 3.33 (10:30) 0 0 0 0 0
25-03-2020 21.3 (15:10) 16.7 (00:00) 19 9.17 (01:50) 4.44 (17:40) 0 0 0 0 0
24-03-2020 21.4 (12:00) 16.7 (00:00) 19.1 7.22 (06:50) 4.44 (18:30) 0 0 0 0 0
23-03-2020 19.2 (16:00) 15.6 (00:00) 17.4 15 (23:40) 8.33 (10:00) 0 0 0 0 0
22-03-2020 21.2 (13:20) 15.6 (08:30) 18.4 13.33 (22:00) 7.78 (16:20) 0 0 0 0 0
21-03-2020 20.9 (14:00) 17.2 (00:00) 19.1 8.61 (11:00) 5.83 (11:00) 0 0 0 0 0
20-03-2020 22 (15:50) 18.1 (00:00) 20.1 9.44 (10:30) 5.28 (10:30) 0 0 0 0 0
19-03-2020 22.3 (13:10) 17.2 (00:00) 19.8 10.83 (00:40) 7.22 (00:40) 0 0 0 0 0
18-03-2020 21.9 (14:40) 15.9 (00:00) 18.9 11.39 (05:40) 6.11 (05:40) 0 0 0 0 0
17-03-2020 20.2 (13:30) 15.2 (00:00) 17.7 11.67 (19:50) 7.5 (07:10) 0 0 0 0 0
16-03-2020 21.8 (15:10) 17.8 (00:00) 19.8 11.11 (17:10) 6.67 (21:20) 0 0 0 0 0
15-03-2020 21.1 (16:00) 16.3 (00:00) 18.7 9.17 (22:10) 5.83 (22:10) 0 0 0 0 0
14-03-2020 22 (14:40) 16.3 (00:00) 19.1 8.89 (10:50) 6.67 (11:50) 0 0 0 0 0
13-03-2020 20.5 (11:40) 17.7 (04:00) 19.1 13.06 (10:50) 7.22 (14:10) 0 0 0 0 0
12-03-2020 22.4 (14:00) 16.2 (00:00) 19.3 9.17 (15:50) 5.28 (18:20) 0 0 0 0 0
11-03-2020 22.6 (12:30) 17.2 (00:00) 19.9 7.5 (01:30) 5 (13:40) 0 0 0 0 0
10-03-2020 23.1 (14:00) 17.4 (00:00) 20.3 9.72 (10:00) 5.83 (10:10) 0 0 0 0 0
09-03-2020 22.1 (11:40) 17.2 (00:00) 19.7 10.56 (11:00) 6.11 (00:10) 0 0 0 0 0
08-03-2020 23.2 (14:10) 17.7 (00:00) 20.5 15.56 (16:50) 7.5 (12:00) 0 0 0 0 0
07-03-2020 19.8 (10:40) 17.3 (00:00) 18.5 15 (12:50) 7.78 (11:20) 0 0 0 0 0
06-03-2020 19.6 (01:20) 18 (00:00) 18.8 14.72 (14:10) 8.33 (14:20) 0 0 0 0 0
05-03-2020 21.3 (11:00) 18.6 (00:00) 19.9 14.17 (18:10) 6.94 (10:00) 0 0 0 0 0
04-03-2020 22.2 (13:50) 18 (04:10) 20.1 8.33 (15:10) 5 (12:00) 0 0 0 0 0
03-03-2020 20.5 (13:10) 17.5 (00:00) 19 10.83 (10:50) 6.67 (10:40) 0 0 0 0 0
02-03-2020 22.4 (13:00) 17.1 (00:00) 19.8 7.5 (17:50) 4.72 (13:50) 0 0 0 0 0
01-03-2020 21.7 (12:20) 16.3 (00:00) 19 9.17 (15:20) 5 (14:00) 0 0 0 0 0
29-02-2020 21.6 (11:40) 16.1 (00:00) 18.9 8.06 (16:40) 5.28 (13:10) 0 0 0 0 0

Gráficas

Temp. máximas Temp. mínimas Temp. medias Precipitaciones Rachas de viento máximas Velocidades máximas media en intervalos de 10 minutos

Datos horarios

Fecha y hora oficial Temperatura (ºC) Velocidad del viento (km/h) Dirección del viento Racha (km/h) Dirección de racha Precipitación (mm) Presión (hPa) Tendencia (hPa) Humedad (%)
2020-03-29 23:00:00 17.2 6 Sur 11 Sur 0 -- -- 69
2020-03-29 22:00:00 17.5 7 Sur 10 Sur 0 -- -- 68
2020-03-29 21:00:00 18.1 5 Sur 8 Sur 0 -- -- 65
2020-03-29 20:00:00 19.3 4 Norte 13 Noroeste 0 -- -- 66
2020-03-29 19:00:00 20.4 8 Noroeste 24 Noroeste 0 -- -- 61
2020-03-29 18:00:00 22.3 14 Noroeste 31 Oeste 0 -- -- 55
2020-03-29 17:00:00 20.9 16 Noroeste 26 Noroeste 0 -- -- 62
2020-03-29 16:00:00 21.5 10 Noroeste 18 Noroeste 0 -- -- 58
2020-03-29 15:00:00 21.1 11 Noroeste 26 Oeste 0 -- -- 59
2020-03-29 14:00:00 21.2 15 Noroeste 25 Oeste 0 -- -- 57
2020-03-29 13:00:00 21.8 13 Noroeste 23 Noroeste 0 -- -- 57
2020-03-29 12:00:00 21.8 8 Norte 15 Noroeste 0 -- -- 59
2020-03-29 11:00:00 21.1 5 Norte 8 Nordeste 0 -- -- 57
2020-03-29 10:00:00 19.9 5 Nordeste 8 Este 0 -- -- 60
2020-03-29 09:00:00 16.4 3 Sudeste 10 Sur 0 -- -- 66
2020-03-29 08:00:00 15.1 5 Sudoeste 11 Sudoeste 0 -- -- 69
2020-03-29 07:00:00 15.1 7 Sudoeste 11 Sur 0 -- -- 68
2020-03-29 06:00:00 15.3 8 Sur 10 Sur 0 -- -- 69
2020-03-29 05:00:00 15.6 8 Sur 11 Sur 0 -- -- 68
2020-03-29 04:00:00 15.5 5 Sur 11 Sur 0 -- -- 63
2020-03-29 00:00:00 16.9 10 Sur 13 Sur 0 -- -- 67
2020-03-28 23:00:00 17.6 6 Sur 8 Sudeste 0 -- -- 64
2020-03-28 22:00:00 18.3 5 Sudeste 9 Sudeste 0 -- -- 64
2020-03-28 21:00:00 18.4 5 Norte 9 Nordeste 0 -- -- 66
2020-03-28 20:00:00 18.6 5 Nordeste 9 Nordeste 0 -- -- 65
2020-03-28 19:00:00 19.1 4 Norte 8 Noroeste 0 -- -- 64
2020-03-28 18:00:00 19.4 4 Nordeste 10 Nordeste 0 -- -- 63
2020-03-28 17:00:00 20.7 6 Norte 10 Norte 0 -- -- 58
2020-03-28 16:00:00 20.3 6 Nordeste 12 Nordeste 0 -- -- 58
2020-03-28 15:00:00 20.1 8 Nordeste 13 Nordeste 0 -- -- 58
2020-03-28 14:00:00 20.6 7 Nordeste 15 Nordeste 0 -- -- 55
2020-03-28 13:00:00 20.9 8 Nordeste 14 Este 0 -- -- 55
2020-03-28 12:00:00 21.1 8 Nordeste 11 Nordeste 0 -- -- 55
2020-03-28 11:00:00 20.7 6 Norte 15 Nordeste 0 -- -- 55
2020-03-28 10:00:00 19.5 8 Nordeste 15 Nordeste 0 -- -- 57
2020-03-28 09:00:00 19.1 10 Nordeste 16 Norte 0 -- -- 58
2020-03-28 08:00:00 17.5 8 Nordeste 19 Norte 0 -- -- 67
2020-03-28 07:00:00 17.3 10 Norte 19 Norte 0 -- -- 68
2020-03-28 06:00:00 17.5 11 Norte 20 Norte 0 -- -- 69
2020-03-28 05:00:00 17.4 11 Norte 23 Noroeste 0 -- -- 68
2020-03-28 04:00:00 17.4 7 Norte 17 Nordeste 0 -- -- 69
2020-03-28 03:00:00 17.4 9 Norte 22 Noroeste 0 -- -- 66
2020-03-28 02:00:00 17.6 11 Norte 22 Norte 0 -- -- 67
2020-03-28 01:00:00 17.7 9 Norte 17 Norte 0 -- -- 67
2020-03-28 00:00:00 17.9 12 Norte 21 Norte 0 -- -- 69
2020-03-27 23:00:00 17.8 11 Norte 21 Norte 0 -- -- 68
2020-03-27 22:00:00 17.9 11 Norte 21 Norte 0 -- -- 69
2020-03-27 21:00:00 17.8 10 Norte 21 Norte 0 -- -- 70
2020-03-27 20:00:00 17.8 12 Norte 20 Norte 0 -- -- 67
2020-03-27 19:00:00 18.2 15 Norte 28 Norte 0 -- -- 73
2020-03-27 18:00:00 19.2 19 Norte 25 Norte 0 -- -- 72
2020-03-27 17:00:00 19.7 15 Noroeste 23 Noroeste 0 -- -- 67
2020-03-27 16:00:00 20.4 10 Norte 15 Noroeste 0 -- -- 65
2020-03-27 15:00:00 21.9 6 Norte 17 Norte 0 -- -- 62
2020-03-27 14:00:00 21.8 9 Norte 14 Norte 0 -- -- 63
2020-03-27 13:00:00 21.9 4 Nordeste 10 Norte 0 -- -- 59
2020-03-27 12:00:00 22.2 7 Norte 12 Noroeste 0 -- -- 60
2020-03-27 11:00:00 21.3 6 Norte 11 Noroeste 0 -- -- 63
2020-03-27 10:00:00 21.2 8 Norte 10 Noroeste 0 -- -- 66
2020-03-27 09:00:00 19.6 5 Nordeste 9 Nordeste 0 -- -- 71
2020-03-27 08:00:00 17 5 Sudeste 9 Sudeste 0 -- -- 74
2020-03-27 07:00:00 16.7 5 Sudeste 9 Sur 0 -- -- 76
2020-03-27 06:00:00 16.4 5 Sur 8 Sur 0 -- -- 75
2020-03-27 05:00:00 16.7 4 Sur 7 Sur 0 -- -- 74
2020-03-27 04:00:00 16.8 4 Sudoeste 6 Sur 0 -- -- 73
2020-03-27 03:00:00 16.5 6 Sudoeste 8 Sudoeste 0 -- -- 72
2020-03-27 02:00:00 17.1 0 Calma 9 Este 0 -- -- 73
2020-03-27 01:00:00 17.1 4 Sudeste 10 Sudeste 0 -- -- 75
2020-03-27 00:00:00 17.5 4 Sudeste 8 Este 0 -- -- 76
2020-03-26 23:00:00 18.1 5 Sudeste 14 Nordeste 0 -- -- 74
2020-03-26 22:00:00 18.5 8 Nordeste 17 Nordeste 0 -- -- 74
2020-03-26 21:00:00 18 4 Sudeste 9 Sur 0 -- -- 68
2020-03-26 20:00:00 17.5 7 Sur 10 Sur 0 -- -- 70
2020-03-26 19:00:00 18.4 2 Sur 4 Sur 0 -- -- 72
2020-03-26 18:00:00 18.8 3 Norte 10 Norte 0 -- -- 72
2020-03-26 17:00:00 19.3 5 Noroeste 12 Noroeste 0 -- -- 70
2020-03-26 16:00:00 20 5 Noroeste 13 Noroeste 0 -- -- 66
2020-03-26 15:00:00 21.4 7 Norte 12 Noroeste 0 -- -- 61
2020-03-26 14:00:00 21.5 8 Nordeste 11 Norte 0 -- -- 60
2020-03-26 13:00:00 21.4 6 Norte 15 Nordeste 0 -- -- 60
2020-03-26 12:00:00 20.1 9 Nordeste 17 Norte 0 -- -- 65
2020-03-26 11:00:00 20 9 Nordeste 18 Nordeste 0 -- -- 65
2020-03-26 10:00:00 19.6 6 Nordeste 14 Nordeste 0 -- -- 69
2020-03-26 09:00:00 18.6 4 Este 8 Sur 0 -- -- 70
2020-03-26 08:00:00 17.7 7 Sudeste 11 Sudeste 0 -- -- 71
2020-03-26 07:00:00 17.4 4 Sur 11 Sur 0 -- -- 69
2020-03-26 06:00:00 17.7 5 Sudeste 14 Nordeste 0 -- -- 69
2020-03-26 05:00:00 17.6 4 Sudoeste 15 Oeste 0 -- -- 69
2020-03-26 04:00:00 17.8 9 Sudoeste 17 Oeste 0 -- -- 67
2020-03-26 03:00:00 18 10 Sudoeste 17 Sudoeste 0 -- -- 63
2020-03-26 02:00:00 18 9 Oeste 14 Oeste 0 -- -- 68
2020-03-26 01:00:00 18.1 8 Oeste 14 Oeste 0 -- -- 67
2020-03-26 00:00:00 17.7 6 Sur 16 Este 0 -- -- 68
2020-03-25 23:00:00 18.3 8 Nordeste 19 Nordeste 0 -- -- 68
2020-03-25 22:00:00 18.5 8 Nordeste 18 Este 0 -- -- 67
2020-03-25 21:00:00 18.5 2 Este 19 Este 0 -- -- 65
2020-03-25 20:00:00 18.9 12 Nordeste 21 Nordeste 0 -- -- 68
2020-03-25 19:00:00 19.5 6 Norte 17 Sudeste 0 -- -- 56
2020-03-25 18:00:00 20 9 Sudeste 26 Sudeste 0 -- -- 49
2020-03-25 17:00:00 20.2 7 Sudeste 13 Sudeste 0 -- -- 58
2020-03-25 16:00:00 20.4 3 Norte 10 Noroeste 0 -- -- 57
2020-03-25 15:00:00 21.1 5 Noroeste 8 Noroeste 0 -- -- 61
2020-03-25 14:00:00 20.2 4 Norte 8 Norte 0 -- -- 66
2020-03-25 13:00:00 19.8 5 Nordeste 12 Nordeste 0 -- -- 65
2020-03-25 12:00:00 20.3 3 Norte 7 Oeste 0 -- -- 65
2020-03-25 11:00:00 19.4 4 Norte 9 Norte 0 -- -- 68
2020-03-25 10:00:00 18.3 4 Nordeste 9 Nordeste 0 -- -- 68
2020-03-25 09:00:00 17.4 5 Sur 15 Sudoeste 0 -- -- 65
2020-03-25 08:00:00 16.8 7 Sur 12 Sur 0 -- -- 72
2020-03-25 07:00:00 17.1 10 Este 24 Este 0 -- -- 73
2020-03-25 06:00:00 16.9 6 Sudeste 13 Sudeste 0 -- -- 66
2020-03-25 05:00:00 17 9 Sudeste 14 Sudeste 0 -- -- 66
2020-03-25 04:00:00 16.8 11 Sudeste 19 Sudeste 0 -- -- 66
2020-03-25 03:00:00 16.9 7 Sur 17 Este 0 -- -- 77
2020-03-25 02:00:00 17.7 13 Nordeste 33 Nordeste 0 -- -- 75
2020-03-25 01:00:00 17.6 4 Nordeste 10 Norte 0 -- -- 73
2020-03-25 00:00:00 17.5 3 Sur 13 Norte 0 -- -- 71
2020-03-24 23:00:00 17.8 3 Este 17 Sur 0 -- -- 70
2020-03-24 22:00:00 17.8 4 Sudeste 15 Este 0 -- -- 70
2020-03-24 21:00:00 18.3 8 Nordeste 15 Norte 0 -- -- 69
2020-03-24 20:00:00 18.5 5 Nordeste 19 Este 0 -- -- 70
2020-03-24 19:00:00 18.8 10 Nordeste 22 Nordeste 0 -- -- 72
2020-03-24 18:00:00 19.6 8 Nordeste 14 Nordeste 0 -- -- 66
2020-03-24 17:00:00 20.7 5 Nordeste 12 Norte 0 -- -- 61
2020-03-24 16:00:00 20.6 5 Nordeste 9 Nordeste 0 -- -- 62
2020-03-24 15:00:00 20.7 5 Nordeste 12 Nordeste 0 -- -- 64
2020-03-24 14:00:00 20.5 9 Nordeste 16 Nordeste 0 -- -- 65
2020-03-24 13:00:00 20.9 10 Nordeste 14 Nordeste 0 -- -- 65
2020-03-24 12:00:00 21.4 7 Nordeste 14 Nordeste 0 -- -- 65
2020-03-24 11:00:00 20.3 9 Nordeste 15 Este 0 -- -- 68
2020-03-24 10:00:00 19.3 7 Nordeste 20 Nordeste 0 -- -- 73
2020-03-24 09:00:00 18.2 5 Este 13 Este 0 -- -- 74
2020-03-24 08:00:00 17.8 7 Nordeste 23 Nordeste 0 -- -- 76
2020-03-24 07:00:00 17.8 10 Norte 26 Norte 0 -- -- 79
2020-03-24 06:00:00 16.8 6 Sudeste 23 Norte 0 -- -- 82
2020-03-24 05:00:00 17.1 7 Sudeste 24 Nordeste 0 -- -- 79
2020-03-24 04:00:00 17.7 10 Noroeste 21 Noroeste 0 -- -- 82
2020-03-24 03:00:00 17.1 6 Sur 19 Norte 0 -- -- 80
2020-03-24 02:00:00 17 5 Sur 10 Sur 0 -- -- 75
2020-03-24 01:00:00 18.4 10 Norte 18 Noroeste 0 -- -- 73
2020-03-24 00:00:00 18.2 12 Norte 54 Sudeste 0 -- -- 71
2020-03-23 23:00:00 17.9 17 Este 28 Este 0 -- -- 71
2020-03-23 22:00:00 18.1 16 Norte 26 Norte 0 -- -- 69
2020-03-23 21:00:00 17.4 12 Sudeste 25 Sur 0 -- -- 69
2020-03-23 20:00:00 18.4 12 Nordeste 24 Norte 0 -- -- 74
2020-03-23 19:00:00 18.4 10 Este 29 Este 0 -- -- 71
2020-03-23 18:00:00 18.4 15 Nordeste 29 Nordeste 0 -- -- 70
2020-03-23 17:00:00 18.9 19 Nordeste 36 Norte 0 -- -- 71
2020-03-23 16:00:00 19.2 16 Nordeste 32 Nordeste 0 -- -- 68
2020-03-23 15:00:00 19 21 Norte 30 Norte 0 -- -- 70
2020-03-23 14:00:00 18.8 23 Nordeste 39 Nordeste 0 -- -- 68
2020-03-23 13:00:00 18.8 18 Nordeste 34 Nordeste 0 -- -- 70
2020-03-23 12:00:00 18.7 25 Norte 33 Norte 0 -- -- 72
2020-03-23 11:00:00 18.3 18 Norte 33 Norte 0 -- -- 75
2020-03-23 10:00:00 17.9 30 Norte 49 Norte 0 -- -- 74
2020-03-23 09:00:00 17.8 25 Norte 41 Norte 0 -- -- 76
2020-03-23 08:00:00 17.8 27 Norte 39 Norte 0 -- -- 73
2020-03-23 07:00:00 17.3 25 Noroeste 40 Norte 0 -- -- 72
2020-03-23 06:00:00 17 22 Norte 43 Norte 0 -- -- 76
2020-03-23 05:00:00 16.6 19 Noroeste 37 Noroeste 0 -- -- 80
2020-03-23 04:00:00 16.4 25 Noroeste 45 Noroeste 0 -- -- 80
2020-03-23 03:00:00 17.5 28 Noroeste 42 Noroeste 0 -- -- 76
2020-03-23 02:00:00 17 23 Noroeste 35 Noroeste 0 -- -- 75
2020-03-23 01:00:00 17.2 24 Norte 37 Noroeste 0 -- -- 77
2020-03-23 00:00:00 17.8 24 Noroeste 38 Noroeste 0 -- -- 72
2020-03-22 23:00:00 17.6 25 Noroeste 36 Noroeste 0 -- -- 74
2020-03-22 22:00:00 17.1 23 Noroeste 48 Noroeste 0 -- -- 74
2020-03-22 21:00:00 17.7 21 Norte 40 Noroeste 0 -- -- 71
2020-03-22 20:00:00 18 23 Noroeste 41 Noroeste 0 -- -- 70
2020-03-22 19:00:00 18 24 Noroeste 37 Noroeste 0 -- -- 69
2020-03-22 18:00:00 17.9 16 Noroeste 27 Norte 0 -- -- 76
2020-03-22 17:00:00 16.8 7 Noroeste 41 Noroeste 0 -- -- 84
2020-03-22 16:00:00 18.1 14 Noroeste 40 Noroeste 0 -- -- 77
2020-03-22 15:00:00 20.5 14 Noroeste 24 Noroeste 0 -- -- 65
2020-03-22 14:00:00 20.7 15 Noroeste 24 Noroeste 0 -- -- 59
2020-03-22 13:00:00 21 11 Noroeste 18 Noroeste 0 -- -- 59
2020-03-22 12:00:00 20.6 5 Norte 17 Norte 0 -- -- 61
2020-03-22 11:00:00 18.8 9 Norte 20 Este 0 -- -- 70
2020-03-22 10:00:00 17.9 10 Sudeste 16 Este 0 -- -- 75
2020-03-22 09:00:00 16.4 6 Sur 33 Noroeste 0 -- -- 79
2020-03-22 08:00:00 16.7 9 Nordeste 26 Norte 0 -- -- 76
2020-03-22 07:00:00 16.9 10 Norte 33 Norte 0 -- -- 75
2020-03-22 06:00:00 17.3 9 Norte 22 Norte 0 -- -- 70
2020-03-22 05:00:00 17.4 15 Norte 25 Norte 0 -- -- 69
2020-03-22 04:00:00 17.9 13 Norte 25 Norte 0 -- -- 70
2020-03-22 03:00:00 18 17 Norte 26 Norte 0 -- -- 60
2020-03-22 02:00:00 17.9 13 Norte 23 Nordeste 0 -- -- 67
2020-03-22 01:00:00 17.9 10 Nordeste 19 Este 0 -- -- 64
2020-03-22 00:00:00 17.8 13 Nordeste 23 Nordeste 0 -- -- 63
2020-03-21 23:00:00 18 12 Nordeste 23 Nordeste 0 -- -- 63
2020-03-21 22:00:00 18 10 Nordeste 23 Nordeste 0 -- -- 64
2020-03-21 21:00:00 18.1 12 Nordeste 23 Nordeste 0 -- -- 63
2020-03-21 20:00:00 18.1 13 Nordeste 26 Nordeste 0 -- -- 66
2020-03-21 19:00:00 18.4 12 Nordeste 23 Nordeste 0 -- -- 63
2020-03-21 18:00:00 18.8 14 Nordeste 22 Nordeste 0 -- -- 62
2020-03-21 17:00:00 19.7 14 Nordeste 20 Nordeste 0 -- -- 59
2020-03-21 16:00:00 19.9 14 Nordeste 23 Nordeste 0 -- -- 56
2020-03-21 15:00:00 20.3 16 Nordeste 27 Nordeste 0 -- -- 58
2020-03-21 14:00:00 20.9 15 Nordeste 27 Este 0 -- -- 57
2020-03-21 13:00:00 19.8 14 Este 26 Nordeste 0 -- -- 53
2020-03-21 12:00:00 19.1 18 Nordeste 29 Nordeste 0 -- -- 57
2020-03-21 11:00:00 19 21 Nordeste 31 Nordeste 0 -- -- 59
2020-03-21 10:00:00 18.5 16 Nordeste 25 Este 0 -- -- 61
2020-03-21 09:00:00 18 14 Nordeste 29 Nordeste 0 -- -- 63
2020-03-21 08:00:00 17.8 14 Nordeste 30 Nordeste 0 -- -- 63
2020-03-21 07:00:00 17.3 10 Sudeste 19 Sudeste 0 -- -- 61
2020-03-21 06:00:00 17.5 7 Este 28 Este 0 -- -- 62
2020-03-21 05:00:00 17.8 14 Nordeste 25 Este 0 -- -- 67
2020-03-21 04:00:00 17.8 14 Nordeste 24 Nordeste 0 -- -- 70
2020-03-21 03:00:00 17.9 12 Nordeste 25 Nordeste 0 -- -- 72
2020-03-21 02:00:00 18.1 13 Nordeste 24 Nordeste 0 -- -- 73
2020-03-21 01:00:00 18.1 11 Nordeste 22 Nordeste 0 -- -- 73
2020-03-21 00:00:00 18.1 15 Nordeste 23 Nordeste 0 -- -- 72
2020-03-20 23:00:00 18.3 13 Nordeste 21 Nordeste 0 -- -- 73
2020-03-20 22:00:00 18.3 13 Este 22 Nordeste 0 -- -- 73
2020-03-20 21:00:00 18.4 14 Nordeste 24 Nordeste 0 -- -- 73
2020-03-20 20:00:00 18.6 15 Nordeste 24 Nordeste 0 -- -- 75
2020-03-20 19:00:00 19 11 Nordeste 22 Nordeste 0 -- -- 74
2020-03-20 18:00:00 19.2 12 Nordeste 25 Nordeste 0 -- -- 73
2020-03-20 17:00:00 19.8 12 Nordeste 23 Este 0 -- -- 70
2020-03-20 16:00:00 21.7 11 Este 22 Este 0 -- -- 59
2020-03-20 15:00:00 21.6 14 Nordeste 27 Nordeste 0 -- -- 61
2020-03-20 14:00:00 20.9 14 Este 27 Este 0 -- -- 62
2020-03-20 13:00:00 20.2 14 Este 26 Este 0 -- -- 68
2020-03-20 12:00:00 20.4 14 Este 22 Este 0 -- -- 67
2020-03-20 11:00:00 20.7 17 Nordeste 34 Este 0 -- -- 66
2020-03-20 10:00:00 19.4 12 Este 24 Este 0 -- -- 67
2020-03-20 09:00:00 18.8 12 Este 24 Nordeste 0 -- -- 70
2020-03-20 08:00:00 18.3 15 Este 24 Este 0 -- -- 75
2020-03-20 07:00:00 18.4 11 Este 23 Este 0 -- -- 75
2020-03-20 06:00:00 18.5 12 Este 23 Este 0 -- -- 75
2020-03-20 05:00:00 18.4 10 Este 21 Nordeste 0 -- -- 74
2020-03-20 04:00:00 18.5 10 Este 22 Nordeste 0 -- -- 76
2020-03-20 03:00:00 18.4 9 Este 18 Este 0 -- -- 75
2020-03-20 02:00:00 18.6 8 Este 20 Sudeste 0 -- -- 75
2020-03-20 01:00:00 18.4 10 Sudeste 28 Sudeste 0 -- -- 72
2020-03-20 00:00:00 18.5 12 Sudeste 21 Sudeste 0 -- -- 74
2020-03-19 23:00:00 18.9 12 Este 22 Nordeste 0 -- -- 76
2020-03-19 22:00:00 19.1 12 Este 22 Este 0 -- -- 76
2020-03-19 21:00:00 19.1 10 Este 23 Este 0 -- -- 77
2020-03-19 20:00:00 19.1 10 Este 23 Este 0 -- -- 75
2020-03-19 19:00:00 19.6 14 Este 24 Este 0 -- -- 75
2020-03-19 18:00:00 19.8 14 Nordeste 25 Nordeste 0 -- -- 75
2020-03-19 17:00:00 19.9 13 Nordeste 24 Nordeste 0 -- -- 75
2020-03-19 16:00:00 20.1 16 Nordeste 27 Este 0 -- -- 74
2020-03-19 15:00:00 20.4 13 Nordeste 22 Nordeste 0 -- -- 73
2020-03-19 14:00:00 20.4 15 Nordeste 32 Este 0 -- -- 71
2020-03-19 13:00:00 21.5 13 Este 27 Este 0 -- -- 67
2020-03-19 12:00:00 20.3 12 Nordeste 22 Norte 0 -- -- 70
2020-03-19 11:00:00 21.5 10 Este 23 Este 0 -- -- 63
2020-03-19 10:00:00 20.1 12 Este 17 Este 0 -- -- 70
2020-03-19 09:00:00 18.8 10 Nordeste 24 Este 0 -- -- 72
2020-03-19 08:00:00 18.7 14 Nordeste 28 Este 0 -- -- 72
2020-03-19 07:00:00 18.6 12 Norte 21 Norte 0 -- -- 73
2020-03-19 06:00:00 18.2 10 Este 19 Norte 0 -- -- 70
2020-03-19 05:00:00 18.3 12 Nordeste 35 Este 0 -- -- 69
2020-03-19 04:00:00 17.3 14 Sudeste 29 Este 0 -- -- 64
2020-03-19 03:00:00 18.1 16 Nordeste 27 Nordeste 0 -- -- 70
2020-03-19 02:00:00 18 13 Norte 25 Norte 0 -- -- 69
2020-03-19 01:00:00 18.3 19 Nordeste 39 Este 0 -- -- 72
2020-03-19 00:00:00 18.4 17 Nordeste 29 Nordeste 0 -- -- 72
2020-03-18 23:00:00 18.5 15 Norte 24 Norte 0 -- -- 71
2020-03-18 22:00:00 17.7 7 Sudeste 17 Sudeste 0 -- -- 64
2020-03-18 21:00:00 17.4 11 Sudeste 22 Este 0 -- -- 60
2020-03-18 20:00:00 18.3 13 Este 28 Nordeste 0 -- -- 62
2020-03-18 19:00:00 18.8 16 Nordeste 31 Este 0 -- -- 63
2020-03-18 18:00:00 19.1 18 Nordeste 32 Nordeste 0 -- -- 64
2020-03-18 17:00:00 19.9 16 Nordeste 24 Este 0 -- -- 63
2020-03-18 16:00:00 21.1 14 Nordeste 28 Nordeste 0 -- -- 57
2020-03-18 15:00:00 21.7 14 Este 25 Este 0 -- -- 53
2020-03-18 14:00:00 21.3 15 Este 30 Nordeste 0 -- -- 56
2020-03-18 13:00:00 20.8 19 Nordeste 30 Este 0 -- -- 53
2020-03-18 12:00:00 21.5 15 Este 30 Nordeste 0 -- -- 51
2020-03-18 11:00:00 18.7 17 Este 34 Este 0 -- -- 68
2020-03-18 10:00:00 18 17 Este 33 Este 0 -- -- 68
2020-03-18 09:00:00 17.1 17 Este 32 Nordeste 0 -- -- 74
2020-03-18 08:00:00 16.6 12 Sudeste 33 Nordeste 0 -- -- 73
2020-03-18 07:00:00 16.4 14 Sudeste 33 Sudeste 0 -- -- 71
2020-03-18 06:00:00 15.9 15 Sudeste 41 Nordeste 0 -- -- 72
2020-03-18 05:00:00 15.9 16 Sudeste 29 Sudeste 0 -- -- 72
2020-03-18 04:00:00 16.4 17 Nordeste 36 Este 0 -- -- 76
2020-03-18 03:00:00 16.5 14 Este 30 Nordeste 0 -- -- 74
2020-03-18 02:00:00 16 17 Sudeste 30 Sudeste 0 -- -- 73
2020-03-18 01:00:00 16.1 17 Sudeste 35 Este 0 -- -- 74
2020-03-18 00:00:00 17.1 22 Este 38 Nordeste 0 -- -- 76
2020-03-17 23:00:00 16.4 15 Sudeste 37 Este 0 -- -- 74
2020-03-17 22:00:00 16.6 9 Sudeste 33 Sudeste 0 -- -- 78
2020-03-17 21:00:00 16.2 13 Sudeste 39 Nordeste 0 -- -- 80
2020-03-17 20:00:00 16.4 14 Este 42 Nordeste 0 -- -- 82
2020-03-17 19:00:00 17.7 17 Este 33 Este 0 -- -- 73
2020-03-17 18:00:00 18 15 Este 30 Nordeste 0 -- -- 73
2020-03-17 17:00:00 17.9 18 Nordeste 28 Nordeste 0 -- -- 72
2020-03-17 16:00:00 18.5 20 Nordeste 33 Nordeste 0 -- -- 67
2020-03-17 15:00:00 18.9 18 Nordeste 36 Nordeste 0 -- -- 70
2020-03-17 14:00:00 19.2 17 Nordeste 26 Nordeste 0 -- -- 67
2020-03-17 13:00:00 18.2 12 Este 36 Nordeste 0 -- -- 68
2020-03-17 12:00:00 18.6 21 Nordeste 32 Nordeste 0 -- -- 70
2020-03-17 11:00:00 17.5 19 Nordeste 34 Nordeste 0 -- -- 67
2020-03-17 10:00:00 16.9 23 Nordeste 35 Nordeste 0 -- -- 75
2020-03-17 09:00:00 16 15 Este 36 Nordeste 0 -- -- 79
2020-03-17 08:00:00 15.2 19 Sudeste 39 Nordeste 0 -- -- 77
2020-03-17 07:00:00 16.9 18 Nordeste 35 Nordeste 0 -- -- 73
2020-03-17 06:00:00 17.2 15 Este 38 Este 0 -- -- 70
2020-03-17 05:00:00 17.1 18 Este 33 Este 0 -- -- 67
2020-03-17 04:00:00 17.5 23 Nordeste 38 Nordeste 0 -- -- 68
2020-03-17 03:00:00 17.8 20 Nordeste 34 Nordeste 0 -- -- 64
2020-03-17 02:00:00 17.8 22 Nordeste 34 Nordeste 0 -- -- 70
2020-03-17 01:00:00 17.6 20 Este 37 Nordeste 0 -- -- 66
2020-03-17 00:00:00 17.9 21 Nordeste 37 Nordeste 0 -- -- 71
2020-03-16 23:00:00 17.9 17 Este 39 Nordeste 0 -- -- 74
2020-03-16 22:00:00 18.2 21 Este 35 Este 0 -- -- 73
2020-03-16 21:00:00 18.2 24 Este 37 Nordeste 0 -- -- 71
2020-03-16 20:00:00 18.8 23 Este 35 Nordeste 0 -- -- 73
2020-03-16 19:00:00 18.8 16 Este 29 Nordeste 0 -- -- 72
2020-03-16 18:00:00 19.6 14 Este 40 Este 0 -- -- 71
2020-03-16 17:00:00 19.2 24 Nordeste 39 Nordeste 0 -- -- 72
2020-03-16 16:00:00 20.5 19 Este 28 Este 0 -- -- 65
2020-03-16 15:00:00 21.4 19 Este 32 Este 0 -- -- 59
2020-03-16 14:00:00 20 21 Este 33 Este 0 -- -- 63
2020-03-16 13:00:00 19.9 15 Este 31 Nordeste 0 -- -- 68
2020-03-16 12:00:00 19.8 18 Nordeste 32 Nordeste 0 -- -- 69
2020-03-16 11:00:00 20 19 Este 34 Nordeste 0 -- -- 69
2020-03-16 10:00:00 19.2 18 Este 30 Este 0 -- -- 65
2020-03-16 09:00:00 18.4 18 Nordeste 35 Este 0 -- -- 72
2020-03-16 08:00:00 18.2 20 Nordeste 37 Nordeste 0 -- -- 73
2020-03-16 07:00:00 18.5 19 Nordeste 36 Nordeste 0 -- -- 72
2020-03-16 06:00:00 18.5 18 Nordeste 37 Nordeste 0 -- -- 70
2020-03-16 05:00:00 18.4 17 Nordeste 31 Este 0 -- -- 71
2020-03-16 04:00:00 18.3 20 Este 33 Nordeste 0 -- -- 70
2020-03-16 03:00:00 18.5 19 Este 36 Nordeste 0 -- -- 71
2020-03-16 02:00:00 18.5 16 Nordeste 34 Nordeste 0 -- -- 72
2020-03-16 01:00:00 18.6 21 Este 33 Nordeste 0 -- -- 73
2020-03-16 00:00:00 18.5 14 Nordeste 30 Este 0 -- -- 73
2020-03-15 23:00:00 18.3 16 Este 33 Nordeste 0 -- -- 69
2020-03-15 22:00:00 18.4 17 Este 31 Este 0 -- -- 70
2020-03-15 21:00:00 18.6 18 Nordeste 32 Nordeste 0 -- -- 68
2020-03-15 20:00:00 18.5 17 Este 30 Este 0 -- -- 69
2020-03-15 19:00:00 18.7 18 Este 31 Este 0 -- -- 68
2020-03-15 18:00:00 19.2 19 Nordeste 27 Nordeste 0 -- -- 66
2020-03-15 17:00:00 19.5 17 Nordeste 27 Nordeste 0 -- -- 67
2020-03-15 16:00:00 21.1 15 Este 23 Nordeste 0 -- -- 60
2020-03-15 15:00:00 20.4 13 Nordeste 28 Este 0 -- -- 64
2020-03-15 14:00:00 19.9 15 Nordeste 25 Este 0 -- -- 64
2020-03-15 13:00:00 19.2 14 Nordeste 25 Nordeste 0 -- -- 66
2020-03-15 12:00:00 19.5 13 Nordeste 27 Nordeste 0 -- -- 67
2020-03-15 11:00:00 20.2 13 Nordeste 26 Nordeste 0 -- -- 63
2020-03-15 10:00:00 19.2 15 Nordeste 27 Nordeste 0 -- -- 67
2020-03-15 09:00:00 18 13 Nordeste 27 Nordeste 0 -- -- 73
2020-03-15 08:00:00 17.6 12 Nordeste 31 Nordeste 0 -- -- 74
2020-03-15 07:00:00 17.6 10 Este 22 Este 0 -- -- 74
2020-03-15 06:00:00 16.6 4 Sur 27 Norte 0 -- -- 71
2020-03-15 05:00:00 17.6 7 Este 23 Nordeste 0 -- -- 71
2020-03-15 04:00:00 17.7 13 Este 23 Nordeste 0 -- -- 69
2020-03-15 03:00:00 18.1 14 Nordeste 23 Nordeste 0 -- -- 72
2020-03-15 02:00:00 18.2 14 Nordeste 22 Este 0 -- -- 71
2020-03-15 01:00:00 18.3 15 Este 24 Nordeste 0 -- -- 71
2020-03-15 00:00:00 18 10 Este 24 Nordeste 0 -- -- 68
2020-03-14 23:00:00 18.2 16 Este 27 Nordeste 0 -- -- 69
2020-03-14 22:00:00 18 11 Este 28 Este 0 -- -- 70
2020-03-14 21:00:00 18.5 16 Este 26 Este 0 -- -- 72
2020-03-14 20:00:00 18.7 11 Este 19 Nordeste 0 -- -- 72
2020-03-14 19:00:00 19 10 Este 17 Este 0 -- -- 70
2020-03-14 18:00:00 19.6 9 Este 19 Este 0 -- -- 69
2020-03-14 17:00:00 20.2 10 Este 15 Este 0 -- -- 66
2020-03-14 16:00:00 20.8 9 Este 18 Este 0 -- -- 65
2020-03-14 15:00:00 22 11 Este 19 Este 0 -- -- 62
2020-03-14 14:00:00 21.2 13 Este 22 Nordeste 0 -- -- 64
2020-03-14 13:00:00 19.8 12 Nordeste 30 Nordeste 0 -- -- 70
2020-03-14 12:00:00 19.7 19 Nordeste 32 Nordeste 0 -- -- 71
2020-03-14 11:00:00 20.3 17 Nordeste 32 Nordeste 0 -- -- 68
2020-03-14 10:00:00 20.6 11 Este 31 Este 0 -- -- 64
2020-03-14 09:00:00 19.4 13 Sudeste 22 Sudeste 0 -- -- 63
2020-03-14 08:00:00 17.1 9 Sudeste 19 Nordeste 0 -- -- 70
2020-03-14 07:00:00 16.5 10 Sur 17 Sur 0 -- -- 70
2020-03-14 06:00:00 16.7 8 Sudeste 18 Sur 0 -- -- 73
2020-03-14 05:00:00 16.4 9 Sudeste 19 Sudeste 0 -- -- 72
2020-03-14 04:00:00 16.9 8 Sudeste 16 Sur 0 -- -- 73
2020-03-14 03:00:00 17.5 5 Sur 21 Sur 0 -- -- 74
2020-03-14 02:00:00 17.7 8 Nordeste 21 Sur 0 -- -- 73
2020-03-14 01:00:00 18.2 10 Sudeste 25 Nordeste 0 -- -- 74
2020-03-14 00:00:00 18.9 16 Nordeste 32 Nordeste 0 -- -- 77
2020-03-13 23:00:00 18.9 13 Este 30 Nordeste 0 -- -- 77
2020-03-13 22:00:00 18.6 11 Nordeste 28 Nordeste 0 -- -- 74
2020-03-13 21:00:00 18.7 14 Este 29 Nordeste 0 -- -- 75
2020-03-13 20:00:00 19.1 15 Este 32 Nordeste 0 -- -- 77
2020-03-13 19:00:00 19.2 18 Este 45 Nordeste 0 -- -- 76
2020-03-13 18:00:00 19.6 18 Nordeste 40 Nordeste 0 -- -- 76
2020-03-13 17:00:00 19.7 23 Nordeste 39 Nordeste 0 -- -- 74
2020-03-13 16:00:00 20 16 Nordeste 39 Nordeste 0 -- -- 72
2020-03-13 15:00:00 20.2 17 Nordeste 44 Nordeste 0 -- -- 72
2020-03-13 14:00:00 20 18 Nordeste 44 Nordeste 0 -- -- 74
2020-03-13 13:00:00 20.1 22 Nordeste 38 Nordeste 0 -- -- 72
2020-03-13 12:00:00 20.5 22 Nordeste 40 Nordeste 0 -- -- 71
2020-03-13 11:00:00 19.9 20 Nordeste 47 Nordeste 0 -- -- 71
2020-03-13 10:00:00 20 11 Nordeste 46 Nordeste 0 -- -- 72
2020-03-13 09:00:00 19.1 21 Nordeste 39 Nordeste 0 -- -- 76
2020-03-13 08:00:00 18.1 6 Noroeste 18 Nordeste 0 -- -- 77
2020-03-13 07:00:00 18.3 19 Nordeste 28 Nordeste 0 -- -- 79
2020-03-13 06:00:00 18.1 5 Norte 24 Norte 0 -- -- 79
2020-03-13 05:00:00 18 9 Noroeste 21 Oeste 0 -- -- 80
2020-03-13 04:00:00 17.7 3 Este 21 Nordeste 0 -- -- 81
2020-03-13 03:00:00 18.4 6 Nordeste 26 Nordeste 0 -- -- 82
2020-03-13 02:00:00 18.5 16 Nordeste 27 Nordeste 0 -- -- 81
2020-03-13 01:00:00 18.8 15 Nordeste 29 Nordeste 0 -- -- 82
2020-03-13 00:00:00 18.8 11 Nordeste 21 Nordeste 0 -- -- 82
2020-03-12 23:00:00 18.9 7 Norte 18 Nordeste 0 -- -- 81
2020-03-12 22:00:00 19.2 12 Nordeste 24 Norte 0 -- -- 81
2020-03-12 21:00:00 19.3 5 Sudeste 26 Nordeste 0 -- -- 80
2020-03-12 20:00:00 19.6 11 Nordeste 28 Nordeste 0 -- -- 81
2020-03-12 19:00:00 19.8 15 Nordeste 30 Nordeste 0 -- -- 80
2020-03-12 18:00:00 20.2 9 Nordeste 27 Nordeste 0 -- -- 78
2020-03-12 17:00:00 20.4 16 Nordeste 31 Nordeste 0 -- -- 78
2020-03-12 16:00:00 20.9 16 Nordeste 33 Nordeste 0 -- -- 76
2020-03-12 15:00:00 21.6 16 Nordeste 28 Norte 0 -- -- 73
2020-03-12 14:00:00 22.4 12 Nordeste 23 Nordeste 0 -- -- 71
2020-03-12 13:00:00 21.9 13 Nordeste 26 Nordeste 0 -- -- 74
2020-03-12 12:00:00 21.6 15 Nordeste 27 Nordeste 0 -- -- 74
2020-03-12 11:00:00 21.9 11 Noroeste 19 Oeste 0 -- -- 72
2020-03-12 10:00:00 20.8 4 Norte 21 Oeste 0 -- -- 77
2020-03-12 09:00:00 19.3 14 Oeste 21 Oeste 0 -- -- 84
2020-03-12 08:00:00 16.7 6 Oeste 12 Oeste 0 -- -- 87
2020-03-12 07:00:00 17 7 Oeste 17 Oeste 0 -- -- 85
2020-03-12 06:00:00 17 5 Oeste 9 Oeste 0 -- -- 86
2020-03-12 05:00:00 17.4 5 Oeste 12 Oeste 0 -- -- 85
2020-03-12 04:00:00 17 5 Sudoeste 12 Oeste 0 -- -- 84
2020-03-12 03:00:00 17.1 3 Oeste 9 Oeste 0 -- -- 85
2020-03-12 02:00:00 17.8 4 Sudoeste 15 Sudoeste 0 -- -- 84
2020-03-12 01:00:00 18.3 3 Norte 22 Nordeste 0 -- -- 84
2020-03-12 00:00:00 18.9 8 Norte 25 Norte 0 -- -- 85
2020-03-11 23:00:00 18.7 3 Nordeste 17 Nordeste 0 -- -- 84
2020-03-11 22:00:00 19.2 8 Nordeste 17 Nordeste 0 -- -- 84
2020-03-11 21:00:00 19.4 9 Nordeste 20 Nordeste 0 -- -- 84
2020-03-11 20:00:00 19.2 3 Oeste 7 Sudoeste 0 -- -- 81
2020-03-11 19:00:00 19.9 3 Oeste 12 Nordeste 0 -- -- 79
2020-03-11 18:00:00 20.5 6 Nordeste 20 Nordeste 0 -- -- 78
2020-03-11 17:00:00 21.7 10 Nordeste 18 Nordeste 0 -- -- 73
2020-03-11 16:00:00 22.1 8 Nordeste 19 Nordeste 0 -- -- 72
2020-03-11 15:00:00 21.3 9 Nordeste 20 Nordeste 0 -- -- 75
2020-03-11 14:00:00 22.3 14 Nordeste 25 Nordeste 0 -- -- 72
2020-03-11 13:00:00 22.5 12 Nordeste 23 Nordeste 0 -- -- 70
2020-03-11 12:00:00 22.3 5 Norte 10 Nordeste 0 -- -- 71
2020-03-11 11:00:00 20.8 4 Nordeste 16 Norte 0 -- -- 73
2020-03-11 10:00:00 21 8 Noroeste 17 Noroeste 0 -- -- 75
2020-03-11 09:00:00 19.8 10 Noroeste 19 Oeste 0 -- -- 80
2020-03-11 08:00:00 17.9 11 Oeste 25 Oeste 0 -- -- 85
2020-03-11 07:00:00 17.2 5 Oeste 14 Nordeste 0 -- -- 84
2020-03-11 06:00:00 18.2 4 Sudoeste 18 Nordeste 0 -- -- 84
2020-03-11 05:00:00 18.2 4 Norte 20 Nordeste 0 -- -- 83
2020-03-11 04:00:00 18.2 12 Norte 25 Nordeste 0 -- -- 83
2020-03-11 03:00:00 18.3 3 Nordeste 22 Nordeste 0 -- -- 82
2020-03-11 02:00:00 18.5 12 Nordeste 27 Nordeste 0 -- -- 82
2020-03-11 01:00:00 18.4 9 Nordeste 24 Nordeste 0 -- -- 81
2020-03-11 00:00:00 18.6 16 Nordeste 30 Nordeste 0 -- -- 84
2020-03-10 23:00:00 18.2 5 Oeste 9 Oeste 0 -- -- 83
2020-03-10 22:00:00 18.6 4 Sur 14 Nordeste 0 -- -- 81
2020-03-10 21:00:00 18.8 3 Este 15 Nordeste 0 -- -- 80
2020-03-10 20:00:00 19.6 9 Este 24 Nordeste 0 -- -- 80
2020-03-10 19:00:00 19.9 10 Nordeste 29 Nordeste 0 -- -- 80
2020-03-10 18:00:00 20.3 15 Nordeste 31 Nordeste 0 -- -- 77
2020-03-10 17:00:00 21.4 11 Nordeste 24 Nordeste 0 -- -- 74
2020-03-10 16:00:00 22.3 7 Norte 14 Norte 0 -- -- 69
2020-03-10 15:00:00 22.1 5 Noroeste 20 Nordeste 0 -- -- 70
2020-03-10 14:00:00 23.1 10 Noroeste 20 Oeste 0 -- -- 69
2020-03-10 13:00:00 22.4 5 Norte 15 Noroeste 0 -- -- 69
2020-03-10 12:00:00 21.2 5 Noroeste 20 Este 0 -- -- 75
2020-03-10 11:00:00 21.5 7 Nordeste 32 Este 0 -- -- 73
2020-03-10 10:00:00 20.4 18 Nordeste 35 Nordeste 0 -- -- 78
2020-03-10 09:00:00 19.3 15 Nordeste 26 Nordeste 0 -- -- 79
2020-03-10 08:00:00 18.5 4 Oeste 17 Nordeste 0 -- -- 81
2020-03-10 07:00:00 18.4 9 Nordeste 17 Nordeste 0 -- -- 80
2020-03-10 06:00:00 18.1 5 Sudoeste 16 Este 0 -- -- 79
2020-03-10 05:00:00 18.5 8 Norte 21 Norte 0 -- -- 79
2020-03-10 04:00:00 17.5 6 Sudoeste 15 Sudoeste 0 -- -- 81
2020-03-10 03:00:00 18.4 5 Norte 19 Norte 0 -- -- 82
2020-03-10 02:00:00 18.2 7 Nordeste 15 Nordeste 0 -- -- 84
2020-03-10 01:00:00 18.1 3 Noroeste 23 Nordeste 0 -- -- 81
2020-03-10 00:00:00 18.8 7 Este 28 Nordeste 0 -- -- 82
2020-03-09 23:00:00 19 11 Nordeste 24 Nordeste 0 -- -- 81
2020-03-09 22:00:00 19.1 10 Este 32 Nordeste 0 -- -- 81
2020-03-09 21:00:00 19.3 16 Nordeste 32 Nordeste 0 -- -- 81
2020-03-09 20:00:00 19.4 11 Nordeste 30 Nordeste 0 -- -- 80
2020-03-09 19:00:00 19.8 10 Nordeste 30 Nordeste 0 -- -- 78
2020-03-09 18:00:00 20 15 Nordeste 32 Nordeste 0 -- -- 78
2020-03-09 17:00:00 20.4 17 Nordeste 33 Nordeste 0 -- -- 77
2020-03-09 16:00:00 20.6 16 Nordeste 31 Nordeste 0 -- -- 75
2020-03-09 15:00:00 21.5 11 Nordeste 32 Nordeste 0 -- -- 73
2020-03-09 14:00:00 21.4 8 Sudeste 24 Nordeste 0 -- -- 71
2020-03-09 13:00:00 21.9 17 Nordeste 32 Nordeste 0 -- -- 69
2020-03-09 12:00:00 22.1 11 Nordeste 36 Nordeste 0 -- -- 69
2020-03-09 11:00:00 21.4 15 Nordeste 38 Este 0 -- -- 71
2020-03-09 10:00:00 21.1 12 Este 32 Este 0 -- -- 72
2020-03-09 09:00:00 19.9 11 Este 34 Norte 0 -- -- 76
2020-03-09 08:00:00 18.7 16 Nordeste 32 Nordeste 0 -- -- 78
2020-03-09 07:00:00 18.3 12 Norte 23 Oeste 0 -- -- 78
2020-03-09 06:00:00 17.5 7 Oeste 12 Noroeste 0 -- -- 77
2020-03-09 05:00:00 18.4 7 Sudoeste 22 Sudoeste 0 -- -- 75
2020-03-09 04:00:00 17.5 9 Sudoeste 15 Sudoeste 0 -- -- 79
2020-03-09 03:00:00 18.8 7 Nordeste 22 Nordeste 0 -- -- 78
2020-03-09 02:00:00 19 9 Nordeste 24 Nordeste 0 -- -- 78
2020-03-09 01:00:00 19.2 16 Nordeste 36 Nordeste 0 -- -- 80
2020-03-09 00:00:00 19.2 20 Nordeste 33 Norte 0 -- -- 81
2020-03-08 23:00:00 19.3 20 Nordeste 37 Norte 0 -- -- 80
2020-03-08 22:00:00 19.3 9 Nordeste 36 Nordeste 0 -- -- 77
2020-03-08 21:00:00 19.5 20 Nordeste 42 Nordeste 0 -- -- 78
2020-03-08 20:00:00 19.5 22 Nordeste 44 Nordeste 0 -- -- 78
2020-03-08 19:00:00 19.8 17 Nordeste 36 Nordeste 0 -- -- 78
2020-03-08 18:00:00 20.1 17 Nordeste 41 Este 0 -- -- 75
2020-03-08 17:00:00 20.1 19 Nordeste 56 Norte 0 -- -- 75
2020-03-08 16:00:00 20.8 16 Nordeste 42 Nordeste 0 -- -- 73
2020-03-08 15:00:00 22 11 Este 39 Nordeste 0 -- -- 66
2020-03-08 14:00:00 22.4 19 Este 39 Nordeste 0 -- -- 65
2020-03-08 13:00:00 21.9 18 Nordeste 50 Nordeste 0 -- -- 64
2020-03-08 12:00:00 21.6 27 Nordeste 48 Nordeste 0 -- -- 65
2020-03-08 11:00:00 21.7 11 Norte 23 Norte 0 -- -- 62
2020-03-08 10:00:00 21.1 5 Noroeste 15 Oeste 0 -- -- 64
2020-03-08 09:00:00 19.5 5 Sur 15 Sudoeste 0 -- -- 69
2020-03-08 08:00:00 18 6 Oeste 17 Oeste 0 -- -- 72
2020-03-08 07:00:00 17.7 4 Sudoeste 19 Este 0 -- -- 71
2020-03-08 06:00:00 18.1 6 Sudeste 18 Sur 0 -- -- 70
2020-03-08 05:00:00 18.1 10 Sudeste 24 Sudeste 0 -- -- 69
2020-03-08 04:00:00 18.1 8 Sudeste 24 Sudeste 0 -- -- 70
2020-03-08 03:00:00 18 12 Sur 23 Sur 0 -- -- 69
2020-03-08 02:00:00 17.9 10 Sudeste 25 Este 0 -- -- 68
2020-03-08 01:00:00 18.1 13 Sudeste 28 Este 0 -- -- 69
2020-03-08 00:00:00 18.5 16 Este 31 Este 0 -- -- 73
2020-03-07 23:00:00 18.5 10 Este 42 Nordeste 0 -- -- 72
2020-03-07 22:00:00 18.5 21 Nordeste 37 Nordeste 0 -- -- 72
2020-03-07 21:00:00 18.6 16 Nordeste 35 Nordeste 0 -- -- 74
2020-03-07 20:00:00 18.7 18 Nordeste 39 Nordeste 0 -- -- 74
2020-03-07 19:00:00 18.8 22 Nordeste 46 Nordeste 0 -- -- 73
2020-03-07 18:00:00 19.1 23 Nordeste 44 Nordeste 0 -- -- 73
2020-03-07 17:00:00 19.2 22 Nordeste 44 Nordeste 0 -- -- 72
2020-03-07 16:00:00 19.3 20 Nordeste 40 Este 0 -- -- 69
2020-03-07 15:00:00 19.3 19 Nordeste 48 Nordeste 0 -- -- 69
2020-03-07 14:00:00 19.4 19 Nordeste 46 Nordeste 0 -- -- 70
2020-03-07 13:00:00 19.3 22 Nordeste 54 Nordeste 0 -- -- 69
2020-03-07 12:00:00 19.2 26 Nordeste 50 Nordeste 0 -- -- 65
2020-03-07 11:00:00 19.5 17 Nordeste 40 Nordeste 0 -- -- 66
2020-03-07 10:00:00 19 20 Este 34 Nordeste 0 -- -- 64
2020-03-07 09:00:00 18.6 10 Este 19 Este 0 -- -- 64
2020-03-07 08:00:00 17.6 9 Sudeste 29 Este 0 -- -- 66
2020-03-07 07:00:00 17.8 10 Este 33 Nordeste 0 -- -- 65
2020-03-07 06:00:00 17.8 12 Este 25 Este 0 -- -- 68
2020-03-07 05:00:00 17.5 10 Sudeste 17 Este 0 -- -- 67
2020-03-07 04:00:00 17.6 9 Este 24 Nordeste 0 -- -- 69
2020-03-07 03:00:00 17.4 7 Sudeste 25 Sudeste 0 -- -- 66
2020-03-07 02:00:00 17.5 5 Sudeste 37 Nordeste 0 -- -- 67
2020-03-07 01:00:00 17.9 23 Nordeste 38 Norte 0 -- -- 70
2020-03-07 00:00:00 18 12 Este 36 Este 0 -- -- 70
2020-03-06 23:00:00 18.1 24 Nordeste 42 Nordeste 0 -- -- 69
2020-03-06 22:00:00 18.2 22 Nordeste 44 Nordeste 0 -- -- 72
2020-03-06 21:00:00 18.2 22 Nordeste 51 Nordeste 0 -- -- 71
2020-03-06 20:00:00 18.6 25 Nordeste 46 Nordeste 0 -- -- 73
2020-03-06 19:00:00 18.7 23 Nordeste 44 Nordeste 0 -- -- 70
2020-03-06 18:00:00 19 20 Nordeste 43 Nordeste 0 -- -- 71
2020-03-06 17:00:00 19.1 23 Nordeste 46 Nordeste 0 -- -- 70
2020-03-06 16:00:00 19.3 21 Nordeste 37 Nordeste 0 -- -- 66
2020-03-06 15:00:00 19.3 24 Nordeste 53 Nordeste 0 -- -- 70
2020-03-06 14:00:00 19.3 27 Nordeste 49 Nordeste 0 -- -- 70
2020-03-06 13:00:00 19.2 25 Nordeste 44 Nordeste 0 -- -- 67
2020-03-06 12:00:00 19.1 24 Este 40 Este 0 -- -- 68
2020-03-06 11:00:00 18.8 21 Este 38 Nordeste 0 -- -- 72
2020-03-06 10:00:00 18.5 23 Este 40 Este 0 -- -- 75
2020-03-06 09:00:00 18.4 23 Nordeste 40 Nordeste 0 -- -- 76
2020-03-06 08:00:00 18.6 21 Nordeste 44 Nordeste 0 -- -- 77
2020-03-06 07:00:00 18.9 23 Nordeste 47 Nordeste 0 -- -- 79
2020-03-06 06:00:00 18.9 20 Nordeste 37 Nordeste 0 -- -- 80
2020-03-06 05:00:00 19 19 Nordeste 40 Nordeste 0 -- -- 82
2020-03-06 04:00:00 19.5 17 Nordeste 35 Este 0 -- -- 75
2020-03-06 03:00:00 18.9 13 Sudeste 29 Nordeste 0 -- -- 68
2020-03-06 02:00:00 19.2 15 Sudeste 44 Nordeste 0 -- -- 66
2020-03-06 01:00:00 19.3 18 Este 40 Nordeste 0 -- -- 69
2020-03-06 00:00:00 19.2 17 Este 38 Nordeste 0 -- -- 71
2020-03-05 23:00:00 19.3 19 Este 35 Nordeste 0 -- -- 75
2020-03-05 22:00:00 19.1 19 Este 41 Nordeste 0 -- -- 72
2020-03-05 21:00:00 19 12 Este 42 Nordeste 0 -- -- 74
2020-03-05 20:00:00 19.1 21 Nordeste 40 Este 0 -- -- 74
2020-03-05 19:00:00 19.2 23 Nordeste 51 Nordeste 0 -- -- 76
2020-03-05 18:00:00 19.6 21 Nordeste 38 Nordeste 0 -- -- 77
2020-03-05 17:00:00 19.8 12 Nordeste 34 Nordeste 0 -- -- 74
2020-03-05 16:00:00 20 19 Nordeste 46 Nordeste 0 -- -- 75
2020-03-05 15:00:00 20 25 Nordeste 47 Nordeste 0 -- -- 75
2020-03-05 14:00:00 20.2 20 Nordeste 33 Nordeste 0 -- -- 74
2020-03-05 13:00:00 20.2 19 Nordeste 37 Nordeste 0 -- -- 74
2020-03-05 12:00:00 20.1 22 Nordeste 43 Nordeste 0 -- -- 75
2020-03-05 11:00:00 21.3 15 Este 35 Nordeste 0 -- -- 71
2020-03-05 10:00:00 20.1 25 Nordeste 40 Nordeste 0 -- -- 75
2020-03-05 09:00:00 20.1 15 Nordeste 27 Nordeste 0 -- -- 75
2020-03-05 08:00:00 19 11 Nordeste 30 Nordeste 0 -- -- 78
2020-03-05 07:00:00 18.7 12 Este 25 Este 0 -- -- 78
2020-03-05 06:00:00 18.7 6 Sudeste 21 Nordeste 0 -- -- 77
2020-03-05 05:00:00 19 12 Este 25 Nordeste 0 -- -- 78
2020-03-05 04:00:00 19.2 12 Este 22 Este 0 -- -- 79
2020-03-05 03:00:00 19 11 Sur 17 Sur 0 -- -- 78
2020-03-05 02:00:00 18.9 5 Sudeste 15 Sudeste 0 -- -- 78
2020-03-05 01:00:00 19.3 5 Este 21 Este 0 -- -- 80
2020-03-05 00:00:00 19.2 6 Sudoeste 28 Nordeste 0 -- -- 79
2020-03-04 23:00:00 19.3 3 Oeste 18 Este 0 -- -- 80
2020-03-04 22:00:00 19.8 9 Este 15 Este 0 -- -- 81
2020-03-04 21:00:00 19.7 3 Este 11 Este 0 -- -- 79
2020-03-04 20:00:00 19.9 5 Este 11 Sudeste 0 -- -- 79
2020-03-04 19:00:00 20.2 8 Este 13 Este 0 -- -- 76
2020-03-04 18:00:00 20.3 8 Este 22 Nordeste 0 -- -- 77
2020-03-04 17:00:00 20.6 12 Nordeste 27 Nordeste 0 -- -- 76
2020-03-04 16:00:00 20.7 15 Nordeste 30 Nordeste 0 -- -- 76
2020-03-04 15:00:00 21.3 16 Nordeste 30 Nordeste 0 -- -- 74
2020-03-04 14:00:00 22.1 16 Nordeste 29 Nordeste 0 -- -- 71
2020-03-04 13:00:00 21.8 15 Nordeste 29 Nordeste 0 -- -- 71
2020-03-04 12:00:00 21.4 18 Nordeste 27 Nordeste 0 -- -- 71
2020-03-04 11:00:00 21.4 12 Este 20 Este 0 -- -- 71
2020-03-04 10:00:00 19.6 7 Este 19 Nordeste 0 -- -- 76
2020-03-04 09:00:00 19 5 Este 13 Este 0 -- -- 79
2020-03-04 08:00:00 18.6 13 Nordeste 24 Nordeste 0 -- -- 80
2020-03-04 07:00:00 18.5 6 Norte 16 Nordeste 0 -- -- 81
2020-03-04 06:00:00 18.4 4 Nordeste 18 Noroeste 0 -- -- 82
2020-03-04 05:00:00 18.3 11 Noroeste 27 Oeste 0 -- -- 82
2020-03-04 04:00:00 18.1 11 Oeste 21 Oeste 0 -- -- 81
2020-03-04 03:00:00 18.4 8 Noroeste 22 Oeste 0 -- -- 81
2020-03-04 02:00:00 18.6 0 Calma 21 Nordeste 0 -- -- 78
2020-03-04 01:00:00 18.9 15 Nordeste 25 Nordeste 0 -- -- 79
2020-03-04 00:00:00 19.1 18 Nordeste 31 Norte 0 -- -- 78
2020-03-03 23:00:00 19.2 15 Nordeste 27 Nordeste 0 -- -- 79
2020-03-03 22:00:00 19.3 14 Nordeste 29 Nordeste 0 -- -- 78
2020-03-03 21:00:00 19.3 15 Nordeste 28 Nordeste 0 -- -- 79
2020-03-03 20:00:00 19.3 12 Este 29 Nordeste 0 -- -- 78
2020-03-03 19:00:00 19.5 16 Nordeste 35 Nordeste 0 -- -- 77
2020-03-03 18:00:00 19.8 15 Nordeste 37 Nordeste 0 -- -- 76
2020-03-03 17:00:00 20.1 17 Nordeste 33 Nordeste 0 -- -- 75
2020-03-03 16:00:00 20.3 18 Nordeste 35 Nordeste 0 -- -- 75
2020-03-03 15:00:00 20.5 17 Nordeste 37 Nordeste 0 -- -- 73
2020-03-03 14:00:00 20.4 19 Nordeste 32 Nordeste 0 -- -- 73
2020-03-03 13:00:00 20.4 17 Nordeste 39 Nordeste 0 -- -- 71
2020-03-03 12:00:00 20.1 23 Nordeste 38 Nordeste 0 -- -- 74
2020-03-03 11:00:00 19.9 19 Nordeste 39 Nordeste 0 -- -- 74
2020-03-03 10:00:00 19.9 4 Nordeste 18 Nordeste 0 -- -- 73
2020-03-03 09:00:00 19.3 4 Este 19 Sudeste 0 -- -- 74
2020-03-03 08:00:00 18.6 15 Sur 25 Sudeste 0 -- -- 76
2020-03-03 07:00:00 18.3 11 Sudoeste 20 Sudoeste 0 -- -- 76
2020-03-03 06:00:00 18 8 Oeste 17 Oeste 0 -- -- 77
2020-03-03 05:00:00 18.2 5 Oeste 16 Sur 0 -- -- 75
2020-03-03 04:00:00 17.8 9 Sur 14 Sur 0 -- -- 75
2020-03-03 03:00:00 17.5 5 Sur 18 Nordeste 0 -- -- 77
2020-03-03 02:00:00 17.8 5 Norte 14 Norte 0 -- -- 77
2020-03-03 01:00:00 18.7 8 Nordeste 18 Norte 0 -- -- 73
2020-03-03 00:00:00 18.6 7 Sudoeste 15 Sudeste 0 -- -- 73
2020-03-02 23:00:00 18.5 10 Sudeste 20 Sudeste 0 -- -- 74
2020-03-02 22:00:00 18.4 12 Sudeste 21 Sudeste 0 -- -- 74
2020-03-02 21:00:00 18.7 14 Sudeste 23 Sudeste 0 -- -- 75
2020-03-02 20:00:00 19 9 Sudeste 21 Este 0 -- -- 75
2020-03-02 19:00:00 19.7 15 Este 23 Nordeste 0 -- -- 77
2020-03-02 18:00:00 20 16 Nordeste 27 Nordeste 0 -- -- 77
2020-03-02 17:00:00 20.4 13 Nordeste 23 Nordeste 0 -- -- 75
2020-03-02 16:00:00 20.9 10 Este 21 Nordeste 0 -- -- 73
2020-03-02 15:00:00 22.1 11 Nordeste 26 Nordeste 0 -- -- 69
2020-03-02 14:00:00 22 17 Nordeste 26 Este 0 -- -- 68
2020-03-02 13:00:00 22.4 10 Este 18 Este 0 -- -- 69
2020-03-02 12:00:00 21.4 10 Este 19 Nordeste 0 -- -- 71
2020-03-02 11:00:00 20.4 11 Nordeste 22 Nordeste 0 -- -- 75
2020-03-02 10:00:00 20.6 13 Nordeste 23 Nordeste 0 -- -- 74
2020-03-02 09:00:00 19.5 10 Nordeste 19 Sudeste 0 -- -- 72
2020-03-02 08:00:00 17.3 8 Sur 24 Sudeste 0 -- -- 73
2020-03-02 07:00:00 17.6 10 Sudeste 26 Sudeste 0 -- -- 72
2020-03-02 06:00:00 17.4 12 Sudeste 22 Sudeste 0 -- -- 72
2020-03-02 05:00:00 17.3 12 Sudeste 23 Sudeste 0 -- -- 73
2020-03-02 04:00:00 17.5 10 Sudeste 17 Sur 0 -- -- 73
2020-03-02 03:00:00 17.4 7 Sudeste 14 Sudeste 0 -- -- 75
2020-03-02 02:00:00 18.2 7 Este 22 Sudeste 0 -- -- 75
2020-03-02 01:00:00 18.5 10 Sudeste 24 Nordeste 0 -- -- 75
2020-03-02 00:00:00 19 14 Este 23 Nordeste 0 -- -- 78
2020-03-01 23:00:00 19 12 Este 25 Este 0 -- -- 77
2020-03-01 22:00:00 19.1 15 Nordeste 28 Nordeste 0 -- -- 78
2020-03-01 21:00:00 19.1 14 Nordeste 26 Nordeste 0 -- -- 78
2020-03-01 20:00:00 19.1 13 Nordeste 23 Nordeste 0 -- -- 78
2020-03-01 19:00:00 19.2 11 Nordeste 26 Nordeste 0 -- -- 78
2020-03-01 18:00:00 19.6 11 Este 23 Nordeste 0 -- -- 78
2020-03-01 17:00:00 19.9 12 Nordeste 21 Nordeste 0 -- -- 78
2020-03-01 16:00:00 20.3 14 Nordeste 33 Nordeste 0 -- -- 76
2020-03-01 15:00:00 21 13 Nordeste 26 Nordeste 0 -- -- 74
2020-03-01 14:00:00 21.1 18 Nordeste 28 Nordeste 0 -- -- 72
2020-03-01 13:00:00 21.5 12 Este 22 Nordeste 0 -- -- 70
2020-03-01 12:00:00 21.4 9 Nordeste 21 Este 0 -- -- 69
2020-03-01 11:00:00 20.7 8 Nordeste 22 Nordeste 0 -- -- 71
2020-03-01 10:00:00 19.7 10 Este 19 Nordeste 0 -- -- 75
2020-03-01 09:00:00 18.7 5 Sur 15 Sudoeste 0 -- -- 79
2020-03-01 08:00:00 16.8 3 Sudeste 22 Sudeste 0 -- -- 83
2020-03-01 07:00:00 16.9 5 Sur 12 Este 0 -- -- 83
2020-03-01 06:00:00 16.4 3 Sur 10 Sur 0 -- -- 82
2020-03-01 05:00:00 16.9 4 Sur 12 Sudeste 0 -- -- 80
2020-03-01 04:00:00 17.7 4 Sudeste 15 Sudeste 0 -- -- 81
2020-03-01 03:00:00 17.4 7 Sur 11 Sudeste 0 -- -- 84
2020-03-01 02:00:00 16.7 4 Sudoeste 10 Sur 0 -- -- 82
2020-03-01 01:00:00 17.3 5 Sur 10 Este 0 -- -- 80
2020-03-01 00:00:00 18.3 3 Sudeste 24 Este 0 -- -- 79
2020-02-29 23:00:00 18.3 5 Este 14 Nordeste 0 -- -- 80
2020-02-29 22:00:00 18.2 5 Sur 22 Nordeste 0 -- -- 77
2020-02-29 21:00:00 19 12 Nordeste 27 Nordeste 0 -- -- 79
2020-02-29 20:00:00 19.1 14 Este 23 Nordeste 0 -- -- 77
2020-02-29 19:00:00 19.3 15 Nordeste 23 Nordeste 0 -- -- 76
2020-02-29 18:00:00 19.6 13 Nordeste 22 Nordeste 0 -- -- 76
2020-02-29 17:00:00 19.9 14 Nordeste 29 Nordeste 0 -- -- 75
2020-02-29 16:00:00 20.2 16 Nordeste 24 Este 0 -- -- 75
2020-02-29 15:00:00 20.8 14 Nordeste 23 Nordeste 0 -- -- 73
2020-02-29 14:00:00 20.9 14 Nordeste 24 Nordeste 0 -- -- 73
2020-02-29 13:00:00 21.4 15 Nordeste 26 Nordeste 0 -- -- 72
2020-02-29 12:00:00 21.3 15 Nordeste 26 Nordeste 0 -- -- 70
2020-02-29 11:00:00 20.8 8 Nordeste 15 Nordeste 0 -- -- 71
2020-02-29 10:00:00 20.5 6 Oeste 14 Oeste 0 -- -- 73
2020-02-29 09:00:00 18.6 2 Sudoeste 16 Sudeste 0 -- -- 77
2020-02-29 08:00:00 17.3 5 Sudeste 16 Sur 0 -- -- 80
2020-02-29 07:00:00 16.9 9 Sur 21 Este 0 -- -- 80
2020-02-29 06:00:00 16.1 6 Sudoeste 10 Sur 0 -- -- 81
2020-02-29 05:00:00 16.7 3 Sudoeste 15 Sur 0 -- -- 78
2020-02-29 04:00:00 17 3 Este 15 Sur 0 -- -- 78
2020-02-29 03:00:00 17.3 8 Sudoeste 15 Sudoeste 0 -- -- 77
2020-02-29 02:00:00 17.6 7 Sur 16 Sur 0 -- -- 75
2020-02-29 01:00:00 17.8 10 Sudeste 19 Sur 0 -- -- 74
2020-02-29 00:00:00 17.9 11 Sudeste 15 Sudeste 0 -- -- 73